Flight Track Log - Related Links

Times and Time Zones

All times are in EDT time to prevent confusion due to time zone crossing. See the N103AL flight status page for this flight to view local times or setup timezone preferences in your user account.

Time Position Orientation Groundspeed Altitude Reporting Facility
EDT Latitude Longitude Course Direction KTS MPH feet Rate Location/Type
Tue 03:34:27 PM 33.0036 -79.9006 107° East 260 299 6,600  Level Jacksonville Center
Tue 03:35:27 PM 32.9811 -79.8269 110° East 282 325 9,500 2,300 Climbing Jacksonville Center
Tue 03:36:27 PM 32.9497 -79.7364 112° Southeast 277 319 11,200 2,000 Climbing Jacksonville Center
Tue 03:37:27 PM 32.9139 -79.6386 114° Southeast 296 341 13,500 2,300 Climbing Jacksonville Center
Tue 03:38:00 PM 32.6542 -79.2071 107° East  Level FlightAware Approximate
Tue 03:38:27 PM 32.8778 -79.5386 113° Southeast 316 364 15,800  Level Jacksonville Center
Tue 03:39:00 PM 32.6178 -79.0678 107° East  Level FlightAware Approximate
Tue 03:39:27 PM 32.8417 -79.4361 113° Southeast 326 375 17,800  Level Jacksonville Center
Tue 03:40:27 PM 32.8033 -79.3314 114° Southeast 347 399 19,700 1,950 Climbing Jacksonville Center
Tue 03:41:27 PM 32.7647 -79.2242 113° Southeast 347 399 21,700 1,650 Climbing Jacksonville Center
Tue 03:42:27 PM 32.7258 -79.1147 113° Southeast 347 399 23,000 650 Climbing Jacksonville Center
Tue 03:43:27 PM 32.6828 -78.9981 114° Southeast 366 421 23,000 450 Level Jacksonville Center
Tue 03:44:27 PM 32.6353 -78.8767 115° Southeast 384 442 23,900 1,200 Climbing Jacksonville Center
Tue 03:45:27 PM 32.5878 -78.7628 116° Southeast 389 448 25,400 1,500 Climbing Jacksonville Center
Tue 03:46:27 PM 32.5378 -78.6444 117° Southeast 394 453 26,900 1,250 Climbing Jacksonville Center
Tue 03:47:27 PM 32.4789 -78.5094 117° Southeast 399 459 27,900 550 Climbing Jacksonville Center
Tue 03:48:27 PM 32.3922 -78.4175 138° Southeast 406 467 28,000  Climbing Jacksonville Center
Tue 03:49:27 PM 32.2933 -78.3931 168° South 388 447 27,900  Descending Jacksonville Center
Tue 03:50:27 PM 32.1819 -78.3714 171° South 393 452 28,000 50 Climbing Jacksonville Center
Tue 03:51:28 PM 32.0664 -78.3550 173° South 403 464 28,000  Level Jacksonville Center
Tue 03:52:27 PM 31.9589 -78.3261 167° South 408 470 28,000  Level Jacksonville Center
Tue 03:53:27 PM 31.8436 -78.3097 173° South 413 475 28,000  Level Jacksonville Center
Tue 03:54:27 PM 31.7319 -78.2861 170° South 408 470 28,000  Level Jacksonville Center
Tue 03:55:27 PM 31.6058 -78.2581 169° South 413 475 28,000  Level Jacksonville Center
Tue 03:56:27 PM 31.4903 -78.2372 171° South 416 479 28,000  Level Jacksonville Center
Tue 03:57:28 PM 31.3789 -78.2183 172° South 414 476 28,000  Level Jacksonville Center
Tue 03:58:27 PM 31.2678 -78.2044 174° South 409 471 28,000  Level Jacksonville Center
Tue 03:59:27 PM 31.1558 -78.1711 166° South 408 470 28,000 -50 Level Jacksonville Center
Tue 04:00:27 PM 31.0425 -78.1550 173° South 416 479 27,900  Descending Jacksonville Center
Tue 04:01:27 PM 30.9397 -78.1408 173° South 418 481 28,000 50 Climbing Jacksonville Center
Tue 04:02:27 PM 30.8283 -78.1222 172° South 413 475 28,000  Level Jacksonville Center
Tue 04:03:27 PM 30.7064 -78.0922 168° South 408 470 28,000  Level Jacksonville Center
Tue 04:04:27 PM 30.5950 -78.0736 172° South 408 470 28,000  Level Jacksonville Center
Tue 04:06:51 PM 30.3611 -78.0336 172° South 389 448 28,000  Level Miami Center
Tue 04:07:51 PM 30.2217 -78.0106 172° South 411 473 28,000  Level Miami Center
Tue 04:08:51 PM 30.1133 -77.9950 173° South 411 473 28,000  Level Miami Center
Tue 04:09:51 PM 29.9947 -77.9675 169° South 416 479 28,000  Level Miami Center
Tue 04:10:51 PM 29.8800 -77.9469 171° South 417 480 28,000  Level Miami Center
Tue 04:11:51 PM 29.7697 -77.9292 172° South 412 474 28,000  Level Miami Center
Tue 04:12:51 PM 29.6594 -77.9114 172° South 413 475 28,000  Level Miami Center
Tue 04:13:51 PM 29.5406 -77.8864 170° South 413 475 28,000  Level Miami Center
Tue 04:14:51 PM 29.4261 -77.8686 172° South 421 484 28,000  Level Miami Center
Tue 04:15:51 PM 29.3114 -77.8486 171° South 421 484 28,000  Level Miami Center
Tue 04:16:51 PM 29.1969 -77.8261 170° South 421 484 28,000  Level Miami Center
Tue 04:17:51 PM 29.0781 -77.8061 172° South 427 491 28,000  Level Miami Center
Tue 04:18:51 PM 28.9489 -77.7814 170° South 442 509 28,000  Level Miami Center
Tue 04:19:51 PM 28.8342 -77.7614 171° South 442 509 28,000  Level Miami Center
Tue 04:20:51 PM 28.7092 -77.7367 170° South 450 518 28,000  Level Miami Center
Tue 04:21:51 PM 28.5861 -77.7169 172° South 450 518 28,000  Level Miami Center
Tue 04:22:51 PM 28.4650 -77.6947 171° South 450 518 28,000  Level Miami Center
Tue 04:23:51 PM 28.3464 -77.6750 172° South 443 510 28,000  Level Miami Center
Tue 04:24:51 PM 28.2192 -77.6503 170° South 450 518 28,000  Level Miami Center
Tue 04:25:51 PM 28.1067 -77.5883 154° Southeast 433 498 28,000  Level Miami Center
Tue 04:26:51 PM 28.0172 -77.4797 133° Southeast 447 514 28,000  Level Miami Center
Tue 04:27:51 PM 27.9322 -77.3592 129° Southeast 475 547 28,000  Level Miami Center
Tue 04:28:51 PM 27.8511 -77.2461 129° Southeast 475 547 28,000  Level Miami Center
Tue 04:29:51 PM 27.7575 -77.1050 127° Southeast 483 556 28,000  Level Miami Center
Tue 04:30:51 PM 27.6742 -76.9922 130° Southeast 483 556 28,000  Level Miami Center
Tue 04:31:51 PM 27.5928 -76.8797 129° Southeast 481 554 28,000  Level Miami Center
Tue 04:32:51 PM 27.5069 -76.7508 127° Southeast 494 568 28,000  Level Miami Center
Tue 04:33:51 PM 27.4192 -76.6244 128° Southeast 494 568 28,000  Level Miami Center
Tue 04:34:51 PM 27.3353 -76.5031 128° Southeast 494 568 28,000  Level Miami Center
Tue 04:35:51 PM 27.2514 -76.3889 130° Southeast 494 568 28,000  Level Miami Center
Tue 04:36:51 PM 27.1694 -76.2772 130° Southeast 489 563 28,000  Level Miami Center
Tue 04:37:51 PM 27.0856 -76.1608 129° Southeast 484 557 28,000  Level Miami Center
Tue 04:38:51 PM 26.9992 -76.0403 129° Southeast 489 563 28,000  Level Miami Center
Tue 04:39:51 PM 26.9128 -75.9172 128° Southeast 489 563 28,000  Level Miami Center
Tue 04:40:51 PM 26.8328 -75.8086 130° Southeast 478 550 28,000  Level Miami Center
Tue 04:41:51 PM 26.7419 -75.6836 129° Southeast 490 564 28,000  Level Miami Center
Tue 04:42:51 PM 26.6489 -75.5683 132° Southeast 488 562 28,000  Level Miami Center
Tue 04:43:51 PM 26.5603 -75.4603 133° Southeast 488 562 28,000  Level Miami Center
Tue 04:44:51 PM 26.4858 -75.3450 126° Southeast 483 556 28,000  Level Miami Center
Tue 04:45:51 PM 26.4053 -75.2253 127° Southeast 481 554 28,000  Level Miami Center
Tue 04:46:51 PM 26.3267 -75.1058 126° Southeast 480 552 28,000  Level Miami Center
Tue 04:47:51 PM 26.2436 -74.9892 128° Southeast 489 563 28,000  Level Miami Center
Tue 04:48:51 PM 26.1628 -74.8792 129° Southeast 473 544 28,000  Level Miami Center
Tue 04:49:51 PM 26.0797 -74.7650 129° Southeast 466 536 28,000  Level Miami Center
Tue 04:50:51 PM 26.0028 -74.6553 128° Southeast 466 536 28,000  Level Miami Center
Tue 04:51:51 PM 25.9092 -74.5392 132° Southeast 478 550 28,000  Level Miami Center
Tue 04:52:51 PM 25.8258 -74.4256 129° Southeast 478 550 28,000  Level Miami Center
Tue 04:53:51 PM 25.7403 -74.3142 130° Southeast 478 550 28,000  Level Miami Center
Tue 04:54:51 PM 25.6675 -74.2097 128° Southeast 478 550 28,000  Level Miami Center
Tue 04:55:51 PM 25.5839 -74.1008 130° Southeast 473 544 28,000  Level Miami Center
Tue 04:56:51 PM 25.5003 -73.9878 129° Southeast 479 551 28,000  Level Miami Center
Tue 04:57:51 PM 25.4144 -73.8747 130° Southeast 473 544 28,000  Level Miami Center
Tue 04:58:51 PM 25.3306 -73.7619 129° Southeast 474 545 28,000 -50 Level Miami Center
Tue 04:59:51 PM 25.2447 -73.6492 130° Southeast 474 545 27,900 -250 Descending Miami Center
Tue 05:00:51 PM 25.1564 -73.5344 130° Southeast 479 551 27,500 -400 Descending Miami Center
Tue 05:01:51 PM 25.0703 -73.4222 130° Southeast 479 551 27,100 -250 Descending Miami Center
Tue 05:02:51 PM 24.9839 -73.3056 129° Southeast 484 557 27,000 -50 Descending Miami Center
Tue 05:03:51 PM 24.8956 -73.1914 130° Southeast 484 557 27,000  Level Miami Center
Tue 05:04:51 PM 24.8114 -73.0817 130° Southeast 484 557 27,000  Level Miami Center
Tue 05:05:51 PM 24.7206 -72.9656 131° Southeast 489 563 27,000  Level Miami Center
Tue 05:06:51 PM 24.6361 -72.8539 130° Southeast 489 563 27,000  Level Miami Center
Tue 05:07:51 PM 24.5558 -72.7447 129° Southeast 474 545 27,000  Level Miami Center
Tue 05:08:51 PM 24.4692 -72.6333 131° Southeast 474 545 27,000  Level Miami Center
Tue 05:09:51 PM 24.3781 -72.5225 132° Southeast 488 562 27,000  Level Miami Center
Tue 05:10:51 PM 24.2975 -72.4092 128° Southeast 475 547 27,000  Level Miami Center
Tue 05:11:51 PM 24.2086 -72.3031 133° Southeast 470 541 27,000  Level Miami Center
Tue 05:12:51 PM 24.1217 -72.1947 131° Southeast 465 535 27,000  Level Miami Center
Tue 05:13:51 PM 24.0347 -72.0819 130° Southeast 480 552 27,000  Level Miami Center
Tue 05:14:51 PM 23.9497 -71.9717 130° Southeast 480 552 27,000  Level Miami Center
Tue 05:15:51 PM 23.8647 -71.8658 131° Southeast 475 547 27,000  Level Miami Center
Tue 05:16:51 PM 23.7772 -71.7514 130° Southeast 469 540 27,000  Level Miami Center
Tue 05:17:51 PM 23.6900 -71.6417 131° Southeast 474 545 27,000  Level Miami Center
Tue 05:18:51 PM 23.6025 -71.5275 130° Southeast 474 545 27,000  Level Miami Center
Tue 05:19:51 PM 23.5150 -71.4203 132° Southeast 479 551 27,000  Level Miami Center
Tue 05:20:51 PM 23.4294 -71.3061 129° Southeast 478 550 27,000  Level Miami Center
Tue 05:21:51 PM 23.3442 -71.2014 132° Southeast 470 541 27,000  Level Miami Center
Tue 05:22:51 PM 23.2567 -71.0922 131° Southeast 475 547 27,000  Level Miami Center
Tue 05:23:51 PM 23.1689 -70.9881 132° Southeast 475 547 27,000  Level Miami Center
Tue 05:24:51 PM 23.0811 -70.8747 130° Southeast 480 552 27,000  Level Miami Center
Tue 05:25:51 PM 22.9933 -70.7661 131° Southeast 480 552 27,000  Level Miami Center
Tue 05:26:51 PM 22.9075 -70.6597 131° Southeast 473 544 27,000  Level Miami Center
Tue 05:27:51 PM 22.8197 -70.5514 131° Southeast 473 544 27,000  Level Miami Center
Tue 05:28:51 PM 22.7336 -70.4431 131° Southeast 473 544 27,000  Level Miami Center
Tue 05:29:51 PM 22.6456 -70.3331 131° Southeast 473 544 27,000  Level Miami Center
Tue 05:30:51 PM 22.5508 -70.2164 131° Southeast 473 544 27,000  Level Miami Center
Tue 05:31:51 PM 22.4603 -70.1067 132° Southeast 473 544 27,000  Level Miami Center
Tue 05:32:51 PM 22.3764 -70.0033 131° Southeast 478 550 27,000  Level Miami Center
Tue 05:33:51 PM 22.2903 -69.8981 131° Southeast 470 541 27,000  Level Miami Center
Tue 05:34:51 PM 22.2000 -69.7908 132° Southeast 470 541 27,000  Level Miami Center
Tue 05:35:51 PM 22.1114 -69.6836 132° Southeast 475 547 27,000  Level Miami Center
Tue 05:36:51 PM 22.0228 -69.5744 131° Southeast 475 547 27,000  Level Miami Center
Tue 05:37:51 PM 21.9325 -69.4700 133° Southeast 475 547 27,000  Level Miami Center
Tue 05:38:51 PM 21.8461 -69.3656 132° Southeast 475 547 27,000  Level Miami Center
Tue 05:39:51 PM 21.7575 -69.2589 132° Southeast 475 547 27,000  Level Miami Center
Tue 05:40:51 PM 21.6686 -69.1525 132° Southeast 475 547 27,000  Level Miami Center
Tue 05:41:51 PM 21.5800 -69.0461 132° Southeast 480 552 27,000  Level Miami Center
Tue 05:42:51 PM 21.4933 -68.9422 132° Southeast 477 549 27,000  Level Miami Center
Tue 05:43:51 PM 21.4047 -68.8383 132° Southeast 477 549 27,000  Level Miami Center
Tue 05:44:51 PM 21.3200 -68.7322 131° Southeast 471 542 27,000  Level Miami Center
Tue 05:45:51 PM 21.2267 -68.6247 133° Southeast 476 548 27,000  Level Miami Center
Tue 05:46:51 PM 21.1378 -68.5214 133° Southeast 476 548 27,000  Level Miami Center
Tue 05:47:51 PM 21.0489 -68.4161 132° Southeast 476 548 27,000  Level Miami Center
Tue 05:48:51 PM 20.9578 -68.3108 133° Southeast 476 548 27,000  Level Miami Center
Tue 05:49:51 PM 20.8706 -68.2056 132° Southeast 476 548 27,000  Level Miami Center
Tue 05:50:51 PM 20.7936 -68.0953 127° Southeast 476 548 27,000  Level Miami Center
Tue 05:51:51 PM 20.7122 -67.9833 128° Southeast 471 542 27,000  Level Miami Center
Tue 05:52:51 PM 20.6289 -67.8717 129° Southeast 477 549 27,000  Level Miami Center
Tue 05:53:51 PM 20.5475 -67.7600 128° Southeast 477 549 27,000  Level Miami Center
Tue 05:54:51 PM 20.4681 -67.6483 127° Southeast 472 543 27,000  Level Miami Center
Tue 05:55:24 PM 20.4333 -67.5833 120° Southeast 480 552 27,000  Level San Juan Center
Tue 05:56:24 PM 20.3500 -67.4833 132° Southeast 470 541 27,000  Level San Juan Center
Tue 05:57:24 PM 20.2667 -67.3667 127° Southeast 480 552 27,000  Level San Juan Center
Tue 05:58:25 PM 20.1833 -67.2500 127° Southeast 480 552 27,000  Level San Juan Center
Tue 05:59:25 PM 20.1167 -67.1333 121° Southeast 480 552 27,000  Level San Juan Center
Tue 06:00:25 PM 20.0333 -67.0333 132° Southeast 480 552 27,000  Level San Juan Center
Tue 06:01:26 PM 19.9500 -66.9167 127° Southeast 470 541 27,000  Level San Juan Center
Tue 06:02:26 PM 19.8667 -66.8000 127° Southeast 470 541 27,000  Level San Juan Center
Tue 06:03:26 PM 19.7833 -66.6833 127° Southeast 480 552 27,000  Level San Juan Center
Tue 06:04:27 PM 19.7000 -66.5833 132° Southeast 480 552 27,000  Level San Juan Center
Tue 06:05:27 PM 19.6167 -66.4667 127° Southeast 480 552 27,000  Level San Juan Center
Tue 06:06:27 PM 19.5333 -66.3500 127° Southeast 480 552 27,000  Level San Juan Center
Tue 06:07:28 PM 19.4500 -66.2500 131° Southeast 480 552 27,000  Level San Juan Center
Tue 06:08:28 PM 19.3667 -66.1333 127° Southeast 470 541 27,000  Level San Juan Center
Tue 06:09:28 PM 19.2833 -66.0167 127° Southeast 480 552 27,000  Level San Juan Center
Tue 06:10:29 PM 19.2000 -65.9167 131° Southeast 480 552 27,000  Level San Juan Center
Tue 06:11:29 PM 19.1167 -65.8000 127° Southeast 480 552 27,000  Level San Juan Center
Tue 06:12:29 PM 19.0333 -65.6667 123° Southeast 480 552 27,000  Level San Juan Center
Tue 06:13:30 PM 18.9500 -65.5667 131° Southeast 480 552 27,000  Level San Juan Center
Tue 06:14:30 PM 18.8667 -65.4500 127° Southeast 480 552 27,000  Level San Juan Center
Tue 06:15:30 PM 18.7833 -65.3500 131° Southeast 480 552 27,000  Level San Juan Center
Tue 06:16:31 PM 18.7000 -65.2333 127° Southeast 480 552 27,000  Level San Juan Center
Tue 06:17:31 PM 18.6167 -65.1167 127° Southeast 480 552 27,000  Level San Juan Center
Tue 06:18:31 PM 18.5333 -65.0000 127° Southeast 480 552 27,000  Level San Juan Center
Tue 06:19:32 PM 18.4500 -64.9000 131° Southeast 500 575 27,000  Level San Juan Center
Tue 06:20:32 PM 18.3667 -64.7833 127° Southeast 490 564 27,000  Level San Juan Center
Tue 06:21:32 PM 18.2667 -64.6667 132° Southeast 480 552 27,000  Level San Juan Center
Tue 06:22:33 PM 18.1833 -64.5667 131° Southeast 480 552 27,000  Level San Juan Center
Tue 06:23:33 PM 18.1167 -64.4667 125° Southeast 480 552 27,000 -50 Level San Juan Center
Tue 06:24:33 PM 18.0333 -64.3500 127° Southeast 470 541 26,900 -850 Descending San Juan Center
Tue 06:25:33 PM 17.9333 -64.2333 132° Southeast 480 552 25,300 -1,587 Descending San Juan Center
Tue 06:26:34 PM 17.8500 -64.1333 131° Southeast 480 552 23,700 -1,537 Descending San Juan Center
Tue 06:27:34 PM 17.7667 -64.0167 127° Southeast 460 529 22,200 -1,450 Descending San Juan Center
Tue 06:28:34 PM 17.7000 -63.9167 125° Southeast 440 506 20,800 -1,400 Descending San Juan Center
Tue 06:29:34 PM 17.6167 -63.8333 136° Southeast 430 495 19,400 -1,339 Descending San Juan Center
Tue 06:30:35 PM 17.5500 -63.7333 125° Southeast 430 495 18,100 -1,624 Descending San Juan Center
Tue 06:32:35 PM 17.4500 -63.5000 114° Southeast 420 483 14,500 -1,833 Descending San Juan Center
Tue 06:33:35 PM 17.4333 -63.4000 100° East 400 460 12,600 -1,835 Descending San Juan Center
Tue 06:34:36 PM 17.4000 -63.2833 107° East 360 414 10,800 -1,636 Descending San Juan Center
Tue 06:35:36 PM 17.3833 -63.2000 102° East 350 403 9,300 -1,591 Descending San Juan Center
Tue 06:37:37 PM 17.3333 -63.0000 105° East 330 380 6,000 -1,636 Descending San Juan Center
Tue 06:39:00 PM 17.4114 -62.8381 67° East  Level FlightAware Approximate
Tue 06:46:00 PM 17.4667 -62.7167 62° Northeast  Level FlightAware Approximate
Tue 06:47:00 PM 17.3462 -62.7182 62° Northeast  Level Estimated
Tue 06:48:00 PM 17.3112 -62.7187 62° Northeast  Level Estimated
Tue 06:49:00 PM 17.3112 -62.7187 62° Northeast  Level Estimated
Tue 06:50:00 PM 17.3112 -62.7187 62° Northeast  Level Estimated
Tue 06:51:00 PM 17.3112 -62.7187 62° Northeast  Level Estimated
Tue 06:52:00 PM 17.3112 -62.7187 62° Northeast  Level Estimated
Tue 06:53:00 PM 17.3112 -62.7187 62° Northeast  Level Estimated
Tue 06:54:00 PM 17.3112 -62.7187 62° Northeast  Level Estimated
Tue 06:55:00 PM 17.3112 -62.7187 62° Northeast  Level Estimated
Tue 06:56:00 PM 17.3112 -62.7187 62° Northeast  Level Estimated
Tue 06:57:00 PM 17.3112 -62.7187 62° Northeast  Level Estimated
Tue 06:58:00 PM 17.3112 -62.7187 62° Northeast  Level Estimated
Tue 06:59:00 PM 17.3112 -62.7187 62° Northeast  Level Estimated
Tue 07:00:00 PM 17.3112 -62.7187 62° Northeast  Level Estimated
Tue 07:01:00 PM 17.3112 -62.7187 62° Northeast  Level Estimated

Login

Don't have an account? Register now (free) for customized features, flight alerts, and more!